createdAt,value
2022-11-23T00:00:30.704Z,1.17
2022-11-23T00:02:57.422Z,1.23
2022-11-23T00:05:24.726Z,1.28
2022-11-23T00:07:51.359Z,1.29
2022-11-23T00:10:17.994Z,1.31
2022-11-23T00:12:44.598Z,1.15
2022-11-23T00:15:12.618Z,1.18
2022-11-23T00:17:39.237Z,1.32
2022-11-23T00:20:07.054Z,1.26
2022-11-23T00:22:33.741Z,1.18
2022-11-23T00:25:00.430Z,1.22
2022-11-23T00:27:27.077Z,1.14
2022-11-23T00:29:53.695Z,1.20
2022-11-23T00:32:20.308Z,1.38
2022-11-23T00:34:46.927Z,1.05
2022-11-23T00:37:13.530Z,1.02
2022-11-23T00:39:40.174Z,1.13
2022-11-23T00:42:06.786Z,1.22
2022-11-23T00:44:33.385Z,1.16
2022-11-23T00:47:00.008Z,1.12
2022-11-23T00:49:26.604Z,1.01
2022-11-23T00:51:53.248Z,1.24
2022-11-23T00:54:19.851Z,1.14
2022-11-23T00:56:46.462Z,1.16
2022-11-23T00:59:13.085Z,1.10
2022-11-23T01:01:39.767Z,0.97
2022-11-23T01:04:06.935Z,1.11
2022-11-23T01:06:35.174Z,1.06
2022-11-23T01:09:05.353Z,1.09
2022-11-23T01:11:32.196Z,0.94
2022-11-23T01:13:58.945Z,1.14
2022-11-23T01:16:27.386Z,1.24
2022-11-23T01:18:58.789Z,0.98
2022-11-23T01:21:25.889Z,1.00
2022-11-23T01:23:52.562Z,1.10
2022-11-23T01:26:19.189Z,1.06
2022-11-23T01:28:45.811Z,1.13
2022-11-23T01:31:22.318Z,1.16
2022-11-23T01:33:55.472Z,1.02
2022-11-23T01:36:23.536Z,1.09
2022-11-23T01:38:50.144Z,1.05
2022-11-23T01:41:24.514Z,0.96
2022-11-23T01:43:51.300Z,0.99
2022-11-23T01:46:17.917Z,1.04
2022-11-23T01:48:49.304Z,0.93
2022-11-23T01:51:20.549Z,0.86
2022-11-23T01:53:47.888Z,0.98
2022-11-23T01:56:19.422Z,1.01
2022-11-23T01:58:48.289Z,1.08
2022-11-23T02:01:14.963Z,0.92
2022-11-23T02:03:42.902Z,1.03
2022-11-23T02:06:17.354Z,0.92
2022-11-23T02:08:43.969Z,0.90
2022-11-23T02:11:11.453Z,1.01
2022-11-23T02:13:38.081Z,1.04
2022-11-23T02:16:04.732Z,0.96
2022-11-23T02:18:31.846Z,1.08
2022-11-23T02:20:59.158Z,0.98
2022-11-23T02:23:57.391Z,0.92
2022-11-23T02:26:28.789Z,1.10
2022-11-23T02:29:08.501Z,0.87
2022-11-23T02:31:35.253Z,1.05
2022-11-23T02:34:01.890Z,1.00
2022-11-23T02:36:35.773Z,0.96
2022-11-23T02:39:29.326Z,1.07
2022-11-23T02:41:56.099Z,1.07
2022-11-23T02:44:46.745Z,1.00
2022-11-23T02:47:13.398Z,1.07
2022-11-23T02:49:42.956Z,0.94
2022-11-23T02:52:09.549Z,0.94
2022-11-23T02:54:36.156Z,0.96
2022-11-23T02:57:02.773Z,0.91
2022-11-23T02:59:29.752Z,0.95
2022-11-23T03:01:56.497Z,0.99
2022-11-23T03:04:27.537Z,0.84
2022-11-23T03:06:54.578Z,0.93
2022-11-23T03:09:21.208Z,0.98
2022-11-23T03:11:47.816Z,0.97
2022-11-23T03:14:14.429Z,0.89
2022-11-23T03:16:41.056Z,0.81
2022-11-23T03:19:07.676Z,1.05
2022-11-23T03:21:34.299Z,0.89
2022-11-23T03:24:00.901Z,0.87
2022-11-23T03:26:27.621Z,1.13
2022-11-23T03:28:54.234Z,0.96
2022-11-23T03:31:20.825Z,0.98
2022-11-23T03:33:47.442Z,0.98
2022-11-23T03:36:14.069Z,0.85
2022-11-23T03:38:40.700Z,0.93
2022-11-23T03:41:07.334Z,0.90
2022-11-23T03:43:33.931Z,0.76
2022-11-23T03:46:00.540Z,0.89
2022-11-23T03:48:27.169Z,0.95
2022-11-23T03:50:53.783Z,0.86
2022-11-23T03:53:20.401Z,0.89
2022-11-23T03:55:47.025Z,0.84
2022-11-23T03:58:13.664Z,0.86
2022-11-23T04:00:40.351Z,0.81
2022-11-23T04:03:07.005Z,0.84
2022-11-23T04:05:33.622Z,0.77
2022-11-23T04:08:00.246Z,0.84
2022-11-23T04:10:26.842Z,0.86
2022-11-23T04:12:53.457Z,0.92
2022-11-23T04:15:20.167Z,0.76
2022-11-23T04:17:46.787Z,0.81
2022-11-23T04:20:13.390Z,0.79
2022-11-23T04:22:40.018Z,0.79
2022-11-23T04:25:06.820Z,0.74
2022-11-23T04:27:33.441Z,0.78
2022-11-23T04:30:00.570Z,0.82
2022-11-23T04:32:27.179Z,0.71
2022-11-23T04:34:53.800Z,0.78
2022-11-23T04:37:20.435Z,0.83
2022-11-23T04:39:47.048Z,0.82
2022-11-23T04:42:13.647Z,0.78
2022-11-23T04:44:40.257Z,0.85
2022-11-23T04:47:06.877Z,0.73
2022-11-23T04:49:33.813Z,0.78
2022-11-23T04:52:00.668Z,0.93
2022-11-23T04:54:27.287Z,0.81
2022-11-23T04:56:53.910Z,0.96
2022-11-23T04:59:20.519Z,1.95
2022-11-23T05:01:47.120Z,2.92
2022-11-23T05:04:17.750Z,2.53
2022-11-23T05:06:45.155Z,2.27
2022-11-23T05:09:12.134Z,2.45
2022-11-23T05:11:38.776Z,2.65
2022-11-23T05:14:05.399Z,2.32
2022-11-23T05:16:32.011Z,2.32
2022-11-23T05:18:58.643Z,2.67
2022-11-23T05:21:25.285Z,2.69
2022-11-23T05:23:51.915Z,2.88
2022-11-23T05:26:18.522Z,3.10
2022-11-23T05:28:45.164Z,3.24
2022-11-23T05:31:11.837Z,2.94
2022-11-23T05:33:38.477Z,2.61
2022-11-23T05:36:05.332Z,2.80
2022-11-23T05:38:31.950Z,2.48
2022-11-23T05:40:58.558Z,2.65
2022-11-23T05:43:25.152Z,2.44
2022-11-23T05:45:51.788Z,2.51
2022-11-23T05:48:18.424Z,1.96
2022-11-23T05:50:45.048Z,1.86
2022-11-23T05:53:11.659Z,1.79
2022-11-23T05:55:38.266Z,1.71
2022-11-23T05:58:04.864Z,1.76
2022-11-23T06:00:31.473Z,1.63
2022-11-23T06:03:01.438Z,1.61
2022-11-23T06:05:28.727Z,1.61
2022-11-23T06:07:55.635Z,1.78
2022-11-23T06:10:22.506Z,1.48
2022-11-23T06:12:49.113Z,1.50
2022-11-23T06:15:16.278Z,1.34
2022-11-23T06:17:42.892Z,1.27
2022-11-23T06:20:09.756Z,1.05
2022-11-23T06:22:36.364Z,1.17
2022-11-23T06:25:02.960Z,1.11
2022-11-23T06:27:29.701Z,1.23
2022-11-23T06:29:56.308Z,1.08
2022-11-23T06:32:22.913Z,1.23
2022-11-23T06:34:49.515Z,1.15
2022-11-23T06:37:16.203Z,1.07
2022-11-23T06:39:42.801Z,1.23
2022-11-23T06:42:38.390Z,0.83
2022-11-23T06:44:56.014Z,0.94
2022-11-23T06:47:26.426Z,1.05
2022-11-23T06:49:53.325Z,1.04
2022-11-23T06:52:19.941Z,1.06
2022-11-23T06:54:46.982Z,1.04
2022-11-23T06:57:13.613Z,1.12
2022-11-23T06:59:44.585Z,1.10
2022-11-23T07:02:12.244Z,1.28
2022-11-23T07:04:38.872Z,1.33
2022-11-23T07:07:07.121Z,1.15
2022-11-23T07:09:34.051Z,1.24
2022-11-23T07:12:00.933Z,1.17
2022-11-23T07:14:27.554Z,1.19
2022-11-23T07:16:54.158Z,1.07
2022-11-23T07:19:20.771Z,1.30
2022-11-23T07:21:47.372Z,1.46
2022-11-23T07:24:13.987Z,1.27
2022-11-23T07:26:40.624Z,1.44
2022-11-23T07:29:07.238Z,1.28
2022-11-23T07:31:33.848Z,1.36
2022-11-23T07:34:00.483Z,1.29
2022-11-23T07:36:27.095Z,1.33
2022-11-23T07:38:53.714Z,1.60
2022-11-23T07:41:20.331Z,1.73
2022-11-23T07:43:46.946Z,1.57
2022-11-23T07:46:13.547Z,1.88
2022-11-23T07:48:40.206Z,2.02
2022-11-23T07:51:06.832Z,2.09
2022-11-23T07:53:33.475Z,2.05
2022-11-23T07:56:00.097Z,2.44
2022-11-23T07:58:26.705Z,2.60
2022-11-23T08:00:53.329Z,2.70
2022-11-23T08:03:27.656Z,2.40
2022-11-23T08:05:55.009Z,2.29
2022-11-23T08:08:21.637Z,2.68
2022-11-23T08:10:52.855Z,2.62
2022-11-23T08:13:20.667Z,2.73
2022-11-23T08:15:53.237Z,2.55
2022-11-23T08:18:20.794Z,2.35
2022-11-23T08:20:47.459Z,2.13
2022-11-23T08:23:14.078Z,2.48
2022-11-23T08:25:40.706Z,2.20
2022-11-23T08:28:07.414Z,2.51
2022-11-23T08:30:34.376Z,2.37
2022-11-23T08:33:06.915Z,2.23
2022-11-23T08:35:40.538Z,1.99
2022-11-23T08:38:08.029Z,2.17
2022-11-23T08:40:34.895Z,2.07
2022-11-23T08:43:01.518Z,1.80
2022-11-23T08:45:28.226Z,1.99
2022-11-23T08:47:54.957Z,1.95
2022-11-23T08:50:21.629Z,1.99
2022-11-23T08:52:48.272Z,1.95
2022-11-23T08:55:14.872Z,1.85
2022-11-23T08:57:41.496Z,1.94
2022-11-23T09:00:08.654Z,1.72
2022-11-23T09:02:35.270Z,1.59
2022-11-23T09:05:01.888Z,1.70
2022-11-23T09:07:28.573Z,1.53
2022-11-23T09:09:55.258Z,1.49
2022-11-23T09:12:21.905Z,1.52
2022-11-23T09:14:48.530Z,1.72
2022-11-23T09:17:15.145Z,1.37
2022-11-23T09:19:41.750Z,1.30
2022-11-23T09:22:08.353Z,1.41
2022-11-23T09:24:35.272Z,1.29
2022-11-23T09:27:02.230Z,1.43
2022-11-23T09:29:28.827Z,1.36
2022-11-23T09:31:55.457Z,1.23
2022-11-23T09:34:22.137Z,1.44
2022-11-23T09:36:48.747Z,1.23
2022-11-23T09:39:15.448Z,1.25
2022-11-23T09:41:51.915Z,1.29
2022-11-23T09:44:26.616Z,1.19
2022-11-23T09:47:34.550Z,1.27
2022-11-23T09:50:15.410Z,1.47
2022-11-23T09:52:44.057Z,1.50
2022-11-23T09:55:28.830Z,1.48
2022-11-23T09:57:59.018Z,1.27
2022-11-23T10:00:25.619Z,1.22
2022-11-23T10:02:52.222Z,1.16
2022-11-23T10:05:22.715Z,1.12
2022-11-23T10:07:52.163Z,1.28
2022-11-23T10:10:36.876Z,1.24
2022-11-23T10:13:31.848Z,1.11
2022-11-23T10:16:24.385Z,1.00
2022-11-23T10:18:57.980Z,1.37
2022-11-23T10:21:41.692Z,1.10
2022-11-23T10:24:08.150Z,1.20
2022-11-23T10:26:38.056Z,1.08
2022-11-23T10:29:31.880Z,0.96
2022-11-23T10:31:58.893Z,1.27
2022-11-23T10:34:51.423Z,1.06
2022-11-23T10:37:18.083Z,1.04
2022-11-23T10:39:44.713Z,1.12
2022-11-23T10:42:23.379Z,1.02
2022-11-23T10:44:50.096Z,1.01
2022-11-23T10:47:35.530Z,1.00
2022-11-23T10:50:02.194Z,0.98
2022-11-23T10:52:32.245Z,0.96
2022-11-23T10:55:00.241Z,1.03
2022-11-23T10:57:33.617Z,0.97
2022-11-23T11:00:21.085Z,0.98
2022-11-23T11:02:53.668Z,0.88
2022-11-23T11:08:36.137Z,1.00
2022-11-23T11:11:08.915Z,0.91
2022-11-23T11:13:46.036Z,0.95
2022-11-23T11:16:31.627Z,0.92
2022-11-23T11:18:58.356Z,0.96
2022-11-23T11:21:33.200Z,0.81
2022-11-23T11:24:04.605Z,0.84
2022-11-23T11:26:32.429Z,0.89
2022-11-23T11:29:03.355Z,0.99
2022-11-23T11:31:35.913Z,0.89
2022-11-23T11:34:21.441Z,0.80
2022-11-23T11:36:58.458Z,0.91
2022-11-23T11:39:33.207Z,0.80
2022-11-23T11:42:01.210Z,0.84
2022-11-23T11:44:27.821Z,0.80
2022-11-23T11:47:04.782Z,0.77
2022-11-23T11:49:33.917Z,0.78
2022-11-23T11:52:15.578Z,0.78
2022-11-23T11:55:07.070Z,0.88
2022-11-23T11:57:39.669Z,1.00
2022-11-23T12:00:10.720Z,0.92
2022-11-23T12:02:42.597Z,0.73
2022-11-23T12:05:26.086Z,0.78
2022-11-23T12:07:55.501Z,0.76
2022-11-23T12:10:26.112Z,0.68
2022-11-23T12:12:52.727Z,0.77
2022-11-23T12:15:47.764Z,0.69
2022-11-23T12:18:36.361Z,0.66
2022-11-23T12:21:04.778Z,0.62
2022-11-23T12:23:41.076Z,0.76
2022-11-23T12:26:26.488Z,0.77
2022-11-23T12:29:17.785Z,0.71
2022-11-23T12:31:44.256Z,0.71
2022-11-23T12:34:16.729Z,0.76
2022-11-23T12:36:43.197Z,0.74
2022-11-23T12:39:21.839Z,0.79
2022-11-23T12:42:00.988Z,0.72
2022-11-23T12:44:51.830Z,0.69
2022-11-23T12:47:30.404Z,0.80
2022-11-23T12:50:10.367Z,0.77
2022-11-23T12:52:58.137Z,0.82
2022-11-23T12:55:43.882Z,0.74
2022-11-23T12:58:29.564Z,0.77
2022-11-23T13:01:16.563Z,0.83
2022-11-23T13:03:59.328Z,0.76
2022-11-23T13:07:28.550Z,0.73
2022-11-23T13:09:53.760Z,0.81
2022-11-23T13:12:42.120Z,0.91
2022-11-23T13:15:46.157Z,0.70
2022-11-23T13:18:18.708Z,0.66
2022-11-23T13:21:23.962Z,0.71
2022-11-23T13:23:50.580Z,0.73
2022-11-23T13:26:27.498Z,0.93
2022-11-23T13:28:54.681Z,0.77
2022-11-23T13:31:31.783Z,0.73
2022-11-23T13:34:02.321Z,0.64
2022-11-23T13:39:55.499Z,0.69
2022-11-23T13:42:22.101Z,0.72
2022-11-23T13:44:48.718Z,0.83
2022-11-23T13:47:15.170Z,0.67
2022-11-23T13:49:42.229Z,0.82
2022-11-23T13:52:23.704Z,0.74
2022-11-23T13:55:10.363Z,0.67
2022-11-23T13:57:38.236Z,0.79
2022-11-23T14:00:41.957Z,0.84
2022-11-23T14:03:42.327Z,0.76
2022-11-23T14:06:34.699Z,0.88
2022-11-23T14:09:43.801Z,0.72
2022-11-23T14:12:33.801Z,0.72
2022-11-23T14:15:14.068Z,0.73
2022-11-23T14:17:59.165Z,0.81
2022-11-23T14:20:45.964Z,0.78
2022-11-23T14:23:47.934Z,0.71
2022-11-23T14:26:28.894Z,0.77
2022-11-23T14:29:18.218Z,0.79
2022-11-23T14:32:10.569Z,0.63
2022-11-23T14:34:57.478Z,0.77
2022-11-23T14:37:35.987Z,0.60
2022-11-23T14:40:11.705Z,0.77
2022-11-23T14:42:44.156Z,0.73
2022-11-23T14:45:14.835Z,0.73
2022-11-23T14:47:41.462Z,0.77
2022-11-23T14:50:23.677Z,0.78
2022-11-23T14:52:50.290Z,0.72
2022-11-23T14:55:24.823Z,0.71
2022-11-23T14:57:52.961Z,0.63
2022-11-23T15:00:31.807Z,0.83
2022-11-23T15:03:15.349Z,0.79
2022-11-23T15:05:51.556Z,0.69
2022-11-23T15:08:20.583Z,0.61
2022-11-23T15:11:15.026Z,0.77
2022-11-23T15:13:46.479Z,0.64
2022-11-23T15:16:13.805Z,0.77
2022-11-23T15:18:40.432Z,0.70
2022-11-23T15:21:09.606Z,0.77
2022-11-23T15:23:55.122Z,0.65
2022-11-23T15:26:46.021Z,0.97
2022-11-23T15:29:29.273Z,0.87
2022-11-23T15:32:22.239Z,0.80
2022-11-23T15:34:42.569Z,0.86
2022-11-23T15:37:09.188Z,0.75
2022-11-23T15:39:35.786Z,0.78
2022-11-23T15:42:02.459Z,0.79
2022-11-23T15:44:32.147Z,0.81
2022-11-23T15:47:05.669Z,0.67
2022-11-23T15:49:36.305Z,0.89
2022-11-23T15:52:02.909Z,0.85
2022-11-23T15:54:34.666Z,0.81
2022-11-23T15:57:01.595Z,0.79
2022-11-23T15:59:47.591Z,0.86
2022-11-23T16:02:23.913Z,0.82
2022-11-23T16:05:11.379Z,0.81
2022-11-23T16:07:57.581Z,0.87
2022-11-23T16:10:31.533Z,0.77
2022-11-23T16:12:59.306Z,0.89
2022-11-23T16:15:28.798Z,0.80
2022-11-23T16:17:55.399Z,0.74
2022-11-23T16:20:23.523Z,0.73
2022-11-23T16:22:50.289Z,0.77
2022-11-23T16:25:25.430Z,0.74
2022-11-23T16:28:16.161Z,0.82
2022-11-23T16:30:43.810Z,0.93
2022-11-23T16:33:14.757Z,0.96
2022-11-23T16:35:41.384Z,0.93
2022-11-23T16:38:08.016Z,0.93
2022-11-23T16:40:34.658Z,1.06
2022-11-23T16:43:01.262Z,0.95
2022-11-23T16:45:27.871Z,0.90
2022-11-23T16:47:55.654Z,0.88
2022-11-23T16:50:22.833Z,0.88
2022-11-23T16:52:49.708Z,0.83
2022-11-23T16:55:16.322Z,0.91
2022-11-23T16:57:42.925Z,0.91
2022-11-23T17:00:18.933Z,1.02
2022-11-23T17:02:45.670Z,0.98
2022-11-23T17:05:15.864Z,0.98
2022-11-23T17:07:42.517Z,0.90
2022-11-23T17:10:09.737Z,0.93
2022-11-23T17:12:36.836Z,0.96
2022-11-23T17:15:04.030Z,0.99
2022-11-23T17:17:30.662Z,0.99
2022-11-23T17:20:02.520Z,0.99
2022-11-23T17:22:30.663Z,0.96
2022-11-23T17:24:57.357Z,0.87
2022-11-23T17:27:24.068Z,1.05
2022-11-23T17:29:57.089Z,1.05
2022-11-23T17:32:23.683Z,0.97
2022-11-23T17:34:50.305Z,0.91
2022-11-23T17:37:23.388Z,0.89
2022-11-23T17:39:50.170Z,0.83
2022-11-23T17:42:16.781Z,1.05
2022-11-23T17:44:43.378Z,0.90
2022-11-23T17:47:21.349Z,1.06
2022-11-23T17:49:47.941Z,0.97
2022-11-23T17:52:14.543Z,0.98
2022-11-23T17:54:41.145Z,1.00
2022-11-23T17:57:16.831Z,0.97
2022-11-23T17:59:43.430Z,1.17
2022-11-23T18:02:10.192Z,0.94
2022-11-23T18:04:36.793Z,1.06
2022-11-23T18:07:03.514Z,0.96
2022-11-23T18:09:30.123Z,1.08
2022-11-23T18:11:56.764Z,0.91
2022-11-23T18:14:23.383Z,1.02
2022-11-23T18:16:50.158Z,1.24
2022-11-23T18:19:16.763Z,1.10
2022-11-23T18:21:43.396Z,1.07
2022-11-23T18:24:10.004Z,1.02
2022-11-23T18:26:36.623Z,1.01
2022-11-23T18:29:03.263Z,0.98
2022-11-23T18:31:29.908Z,1.09
2022-11-23T18:33:56.557Z,0.98
2022-11-23T18:36:23.183Z,1.07
2022-11-23T18:38:49.797Z,1.10
2022-11-23T18:41:16.674Z,0.99
2022-11-23T18:43:44.113Z,0.98
2022-11-23T18:46:11.218Z,0.95
2022-11-23T18:48:37.866Z,1.08
2022-11-23T18:51:04.816Z,0.99
2022-11-23T18:53:32.309Z,1.17
2022-11-23T18:56:03.178Z,1.08
2022-11-23T18:58:40.197Z,1.04
2022-11-23T19:01:17.835Z,1.10
2022-11-23T19:03:45.096Z,1.17
2022-11-23T19:06:11.947Z,1.16
2022-11-23T19:08:39.411Z,1.17
2022-11-23T19:11:10.826Z,1.23
2022-11-23T19:13:37.892Z,1.10
2022-11-23T19:16:12.114Z,1.35
2022-11-23T19:18:38.806Z,1.62
2022-11-23T19:21:18.782Z,2.40
2022-11-23T19:23:48.384Z,2.16
2022-11-23T19:26:14.993Z,1.97
2022-11-23T19:28:41.604Z,1.97
2022-11-23T19:31:15.021Z,2.06
2022-11-23T19:33:42.601Z,1.86
2022-11-23T19:36:11.362Z,1.96
2022-11-23T19:38:37.975Z,1.82
2022-11-23T19:41:04.582Z,1.85
2022-11-23T19:43:31.207Z,1.91
2022-11-23T19:46:00.421Z,1.89
2022-11-23T19:48:27.099Z,2.74
2022-11-23T19:51:02.403Z,2.57
2022-11-23T19:53:33.630Z,2.72
2022-11-23T19:56:22.030Z,2.56
2022-11-23T19:58:51.194Z,2.48
2022-11-23T20:01:19.317Z,2.46
2022-11-23T20:03:47.471Z,2.41
2022-11-23T20:06:21.448Z,2.36
2022-11-23T20:08:48.263Z,2.10
2022-11-23T20:11:16.052Z,2.28
2022-11-23T20:13:43.351Z,2.18
2022-11-23T20:16:14.554Z,2.17
2022-11-23T20:18:41.837Z,2.36
2022-11-23T20:21:12.457Z,2.19
2022-11-23T20:23:39.547Z,2.11
2022-11-23T20:26:06.205Z,2.32
2022-11-23T20:28:32.826Z,2.27
2022-11-23T20:31:05.962Z,2.15
2022-11-23T20:33:32.692Z,2.16
2022-11-23T20:36:16.188Z,2.13
2022-11-23T20:38:42.864Z,2.11
2022-11-23T20:41:12.958Z,2.19
2022-11-23T20:43:40.013Z,2.08
2022-11-23T20:46:06.720Z,1.90
2022-11-23T20:48:33.726Z,1.92
2022-11-23T20:51:00.335Z,2.22
2022-11-23T20:53:26.957Z,2.17
2022-11-23T20:55:53.698Z,2.14
2022-11-23T20:58:20.303Z,1.98
2022-11-23T21:00:51.418Z,2.27
2022-11-23T21:03:18.301Z,2.11
2022-11-23T21:05:44.955Z,1.88
2022-11-23T21:08:11.692Z,2.09
2022-11-23T21:10:38.324Z,2.05
2022-11-23T21:13:04.953Z,2.22
2022-11-23T21:15:31.721Z,2.21
2022-11-23T21:17:58.348Z,2.17
2022-11-23T21:20:24.984Z,2.10
2022-11-23T21:22:51.599Z,1.95
2022-11-23T21:25:18.238Z,1.85
2022-11-23T21:27:44.864Z,1.93
2022-11-23T21:30:11.923Z,1.88
2022-11-23T21:32:38.525Z,1.97
2022-11-23T21:35:05.508Z,2.12
2022-11-23T21:37:32.139Z,2.14
2022-11-23T21:39:58.771Z,2.13
2022-11-23T21:42:25.394Z,1.93
2022-11-23T21:44:52.012Z,2.00
2022-11-23T21:47:18.626Z,2.05
2022-11-23T21:49:45.241Z,2.03
2022-11-23T21:52:11.864Z,1.98
2022-11-23T21:54:38.512Z,1.79
2022-11-23T21:57:05.143Z,1.93
2022-11-23T21:59:31.773Z,2.02
2022-11-23T22:01:58.459Z,2.08
2022-11-23T22:04:25.117Z,1.91
2022-11-23T22:06:51.723Z,1.82
2022-11-23T22:09:18.384Z,1.87
2022-11-23T22:11:44.999Z,1.90
2022-11-23T22:14:13.049Z,1.98
2022-11-23T22:16:41.288Z,1.84
2022-11-23T22:19:15.563Z,1.99
2022-11-23T22:21:42.803Z,1.91
2022-11-23T22:24:16.612Z,1.84
2022-11-23T22:26:43.345Z,1.83
2022-11-23T22:29:10.041Z,1.77
2022-11-23T22:31:36.749Z,1.97
2022-11-23T22:34:07.079Z,2.03
2022-11-23T22:36:33.684Z,1.93
2022-11-23T22:39:02.276Z,1.73
2022-11-23T22:41:29.543Z,1.82
2022-11-23T22:43:56.155Z,1.96
2022-11-23T22:46:23.553Z,1.60
2022-11-23T22:48:50.459Z,1.87
2022-11-23T22:51:18.963Z,1.81
2022-11-23T22:53:45.657Z,1.76
2022-11-23T22:56:13.748Z,1.72
2022-11-23T22:58:40.477Z,1.85
2022-11-23T23:01:08.603Z,1.77
2022-11-23T23:03:35.656Z,1.93
2022-11-23T23:06:02.342Z,1.85
2022-11-23T23:08:28.988Z,1.82
2022-11-23T23:10:55.649Z,1.67
2022-11-23T23:13:22.260Z,1.74
2022-11-23T23:15:48.871Z,1.76
2022-11-23T23:18:15.518Z,1.81
2022-11-23T23:20:42.312Z,1.90
2022-11-23T23:23:09.013Z,1.88
2022-11-23T23:25:35.638Z,1.94
2022-11-23T23:28:02.259Z,1.75
2022-11-23T23:30:28.893Z,1.74
2022-11-23T23:32:55.519Z,1.86
2022-11-23T23:35:22.135Z,1.80
2022-11-23T23:37:49.693Z,1.67
2022-11-23T23:40:16.435Z,1.65
2022-11-23T23:42:43.049Z,1.85
2022-11-23T23:45:09.737Z,1.67
2022-11-23T23:47:36.369Z,1.49
2022-11-23T23:50:03.012Z,1.80
2022-11-23T23:52:29.625Z,1.84
2022-11-23T23:54:56.252Z,1.74
2022-11-23T23:57:22.885Z,1.69
2022-11-23T23:59:49.500Z,1.67
